Terminal Aerodrome Forecast
Issued by NWS

Home | Current Version | Previous Version | Text Only | Print | Product List | Glossary On
Versions: 1 2 3 4 5 6 7 8 9 10 11 12 13 14 15 16 17 18 19 20 21 22 23 24
000
FTUS41 KRLX 182337
TAFCKB
TAF
KCKB 182337Z 1900/1924 20013G25KT P6SM OVC040
     FM190100 20013G22KT 5SM SHRA OVC040
     FM190200 20013G30KT 3SM SHRA OVC025
     FM190500 25014G24KT P6SM SHRA OVC015
     FM191200 28013G24KT P6SM OVC015
     FM191700 28012G22KT P6SM VCSH OVC025=

USA.gov is the U.S. government's official web portal to all federal, state and local government web resources and services.